sensor_id;sensor_type;location;lat;lon;timestamp;pressure;altitude;pressure_sealevel;temperature;humidity
49611;BME280;35515;48.766;9.176;2023-04-25T00:01:22;97764.59;;;9.59;74.50
49611;BME280;35515;48.766;9.176;2023-04-25T00:03:49;97762.41;;;9.74;72.36
49611;BME280;35515;48.766;9.176;2023-04-25T00:06:15;97754.78;;;9.64;71.95
49611;BME280;35515;48.766;9.176;2023-04-25T00:08:42;97749.78;;;9.68;72.12
49611;BME280;35515;48.766;9.176;2023-04-25T00:11:10;97745.81;;;9.70;70.98
49611;BME280;35515;48.766;9.176;2023-04-25T00:13:37;97742.03;;;9.71;70.83
49611;BME280;35515;48.766;9.176;2023-04-25T00:16:06;97739.03;;;9.86;68.94
49611;BME280;35515;48.766;9.176;2023-04-25T00:18:33;97739.03;;;9.86;69.07
49611;BME280;35515;48.766;9.176;2023-04-25T00:21:00;97741.19;;;9.78;69.53
49611;BME280;35515;48.766;9.176;2023-04-25T00:23:26;97743.94;;;9.71;68.94
49611;BME280;35515;48.766;9.176;2023-04-25T00:25:53;97737.91;;;9.69;70.11
49611;BME280;35515;48.766;9.176;2023-04-25T00:28:20;97741.84;;;9.73;69.32
49611;BME280;35515;48.766;9.176;2023-04-25T00:30:47;97736.06;;;9.63;69.39
49611;BME280;35515;48.766;9.176;2023-04-25T00:33:13;97741.94;;;9.60;70.28
49611;BME280;35515;48.766;9.176;2023-04-25T00:35:40;97743.38;;;9.56;71.64
49611;BME280;35515;48.766;9.176;2023-04-25T00:38:07;97736.16;;;9.49;72.75
49611;BME280;35515;48.766;9.176;2023-04-25T00:40:33;97741.34;;;9.51;74.02
49611;BME280;35515;48.766;9.176;2023-04-25T00:43:00;97730.94;;;9.54;74.39
49611;BME280;35515;48.766;9.176;2023-04-25T00:45:28;97729.53;;;9.45;75.33
49611;BME280;35515;48.766;9.176;2023-04-25T00:47:56;97738.50;;;9.39;75.36
49611;BME280;35515;48.766;9.176;2023-04-25T00:50:23;97733.53;;;9.36;75.45
49611;BME280;35515;48.766;9.176;2023-04-25T00:52:49;97727.25;;;9.42;75.11
49611;BME280;35515;48.766;9.176;2023-04-25T00:55:16;97720.00;;;9.36;75.66
49611;BME280;35515;48.766;9.176;2023-04-25T00:57:43;97720.38;;;9.40;75.32
49611;BME280;35515;48.766;9.176;2023-04-25T01:00:11;97722.28;;;9.39;76.31
49611;BME280;35515;48.766;9.176;2023-04-25T01:02:40;97719.31;;;9.47;75.18
49611;BME280;35515;48.766;9.176;2023-04-25T01:05:07;97722.31;;;9.32;76.78
49611;BME280;35515;48.766;9.176;2023-04-25T01:07:34;97711.09;;;9.29;76.90
49611;BME280;35515;48.766;9.176;2023-04-25T01:10:01;97713.44;;;9.57;76.00
49611;BME280;35515;48.766;9.176;2023-04-25T01:12:29;97716.00;;;9.45;75.64
49611;BME280;35515;48.766;9.176;2023-04-25T01:14:56;97707.78;;;9.27;76.82
49611;BME280;35515;48.766;9.176;2023-04-25T01:17:22;97706.75;;;9.28;76.45
49611;BME280;35515;48.766;9.176;2023-04-25T01:19:50;97709.84;;;9.31;77.09
49611;BME280;35515;48.766;9.176;2023-04-25T01:22:18;97708.91;;;9.51;73.83
49611;BME280;35515;48.766;9.176;2023-04-25T01:24:45;97699.94;;;9.57;73.80
49611;BME280;35515;48.766;9.176;2023-04-25T01:27:12;97708.84;;;9.58;74.72
49611;BME280;35515;48.766;9.176;2023-04-25T01:29:39;97702.22;;;9.53;76.70
49611;BME280;35515;48.766;9.176;2023-04-25T01:32:05;97705.28;;;9.64;76.59
49611;BME280;35515;48.766;9.176;2023-04-25T01:34:32;97704.47;;;9.57;75.89
49611;BME280;35515;48.766;9.176;2023-04-25T01:36:59;97706.88;;;9.46;76.76
49611;BME280;35515;48.766;9.176;2023-04-25T01:39:28;97707.72;;;9.40;76.83
49611;BME280;35515;48.766;9.176;2023-04-25T01:41:54;97700.94;;;9.24;77.82
49611;BME280;35515;48.766;9.176;2023-04-25T01:44:21;97700.06;;;9.37;77.57
49611;BME280;35515;48.766;9.176;2023-04-25T01:46:48;97702.53;;;9.39;77.46
49611;BME280;35515;48.766;9.176;2023-04-25T01:49:14;97711.28;;;9.34;78.70
49611;BME280;35515;48.766;9.176;2023-04-25T01:51:41;97704.91;;;9.22;78.57
49611;BME280;35515;48.766;9.176;2023-04-25T01:54:08;97704.91;;;9.22;78.72
49611;BME280;35515;48.766;9.176;2023-04-25T01:56:37;97703.91;;;9.16;79.24
49611;BME280;35515;48.766;9.176;2023-04-25T01:59:04;97699.50;;;9.22;79.35
49611;BME280;35515;48.766;9.176;2023-04-25T02:01:31;97706.16;;;9.19;79.22
49611;BME280;35515;48.766;9.176;2023-04-25T02:03:58;97697.44;;;9.24;79.82
49611;BME280;35515;48.766;9.176;2023-04-25T02:06:24;97696.97;;;9.27;79.64
49611;BME280;35515;48.766;9.176;2023-04-25T02:08:51;97695.69;;;9.36;79.00
49611;BME280;35515;48.766;9.176;2023-04-25T02:11:17;97698.66;;;9.60;77.27
49611;BME280;35515;48.766;9.176;2023-04-25T02:13:45;97701.31;;;9.66;75.18
49611;BME280;35515;48.766;9.176;2023-04-25T02:16:11;97700.47;;;9.66;75.33
49611;BME280;35515;48.766;9.176;2023-04-25T02:18:38;97699.34;;;9.80;73.83
49611;BME280;35515;48.766;9.176;2023-04-25T02:21:06;97701.16;;;9.61;74.60
49611;BME280;35515;48.766;9.176;2023-04-25T02:23:32;97689.97;;;9.51;74.26
49611;BME280;35515;48.766;9.176;2023-04-25T02:25:59;97688.09;;;9.51;73.99
49611;BME280;35515;48.766;9.176;2023-04-25T02:28:25;97691.84;;;9.50;74.80
49611;BME280;35515;48.766;9.176;2023-04-25T02:30:53;97684.94;;;9.86;72.18
49611;BME280;35515;48.766;9.176;2023-04-25T02:33:20;97682.75;;;9.38;73.58
49611;BME280;35515;48.766;9.176;2023-04-25T02:35:47;97678.94;;;9.52;72.77
49611;BME280;35515;48.766;9.176;2023-04-25T02:38:13;97684.44;;;9.39;72.39
49611;BME280;35515;48.766;9.176;2023-04-25T02:40:40;97683.56;;;9.45;72.90
49611;BME280;35515;48.766;9.176;2023-04-25T02:43:07;97684.06;;;9.29;73.62
49611;BME280;35515;48.766;9.176;2023-04-25T02:45:33;97684.09;;;9.22;74.21
49611;BME280;35515;48.766;9.176;2023-04-25T02:48:02;97680.84;;;9.13;75.82
49611;BME280;35515;48.766;9.176;2023-04-25T02:50:28;97674.19;;;9.16;76.71
49611;BME280;35515;48.766;9.176;2023-04-25T02:52:55;97672.28;;;9.16;76.28
49611;BME280;35515;48.766;9.176;2023-04-25T02:55:21;97659.59;;;9.17;76.65
49611;BME280;35515;48.766;9.176;2023-04-25T02:57:48;97664.81;;;9.18;74.59
49611;BME280;35515;48.766;9.176;2023-04-25T03:00:14;97677.09;;;9.14;73.67
49611;BME280;35515;48.766;9.176;2023-04-25T03:02:41;97670.88;;;9.07;73.78
49611;BME280;35515;48.766;9.176;2023-04-25T03:05:09;97675.03;;;9.10;73.87
49611;BME280;35515;48.766;9.176;2023-04-25T03:07:35;97680.44;;;9.10;73.41
49611;BME280;35515;48.766;9.176;2023-04-25T03:10:02;97679.19;;;9.12;73.71
49611;BME280;35515;48.766;9.176;2023-04-25T03:12:29;97675.44;;;9.13;73.72
49611;BME280;35515;48.766;9.176;2023-04-25T03:14:55;97674.22;;;9.09;74.93
49611;BME280;35515;48.766;9.176;2023-04-25T03:17:22;97672.31;;;9.10;75.92
49611;BME280;35515;48.766;9.176;2023-04-25T03:19:48;97677.13;;;9.01;77.06
49611;BME280;35515;48.766;9.176;2023-04-25T03:22:16;97674.44;;;9.01;77.51
49611;BME280;35515;48.766;9.176;2023-04-25T03:24:42;97668.88;;;8.96;78.20
49611;BME280;35515;48.766;9.176;2023-04-25T03:27:09;97664.50;;;8.95;78.39
49611;BME280;35515;48.766;9.176;2023-04-25T03:29:36;97662.44;;;8.90;78.46
49611;BME280;35515;48.766;9.176;2023-04-25T03:32:02;97658.06;;;8.96;77.79
49611;BME280;35515;48.766;9.176;2023-04-25T03:34:29;97671.34;;;8.97;77.42
49611;BME280;35515;48.766;9.176;2023-04-25T03:36:56;97660.97;;;8.94;77.61
49611;BME280;35515;48.766;9.176;2023-04-25T03:39:23;97663.88;;;8.93;77.67
49611;BME280;35515;48.766;9.176;2023-04-25T03:41:50;97672.22;;;8.84;77.93
49611;BME280;35515;48.766;9.176;2023-04-25T03:44:17;97672.88;;;8.86;78.20
49611;BME280;35515;48.766;9.176;2023-04-25T03:46:43;97680.53;;;8.90;78.11
49611;BME280;35515;48.766;9.176;2023-04-25T03:49:10;97673.50;;;8.82;79.09
49611;BME280;35515;48.766;9.176;2023-04-25T03:51:36;97679.56;;;8.77;79.49
49611;BME280;35515;48.766;9.176;2023-04-25T03:54:03;97663.72;;;8.81;78.72
49611;BME280;35515;48.766;9.176;2023-04-25T03:56:31;97672.69;;;8.81;79.28
49611;BME280;35515;48.766;9.176;2023-04-25T03:58:57;97666.88;;;8.71;79.43
49611;BME280;35515;48.766;9.176;2023-04-25T04:01:24;97660.66;;;8.77;79.49
49611;BME280;35515;48.766;9.176;2023-04-25T04:03:51;97666.66;;;8.73;79.42
49611;BME280;35515;48.766;9.176;2023-04-25T04:06:17;97660.66;;;8.70;79.62
49611;BME280;35515;48.766;9.176;2023-04-25T04:08:45;97663.94;;;8.79;78.70
49611;BME280;35515;48.766;9.176;2023-04-25T04:11:12;97657.94;;;8.77;78.72
49611;BME280;35515;48.766;9.176;2023-04-25T04:13:40;97664.78;;;8.80;78.72
49611;BME280;35515;48.766;9.176;2023-04-25T04:16:06;97666.28;;;8.69;78.12
49611;BME280;35515;48.766;9.176;2023-04-25T04:18:33;97671.69;;;8.69;79.21
49611;BME280;35515;48.766;9.176;2023-04-25T04:20:59;97664.38;;;8.76;77.46
49611;BME280;35515;48.766;9.176;2023-04-25T04:23:26;97667.31;;;8.68;78.42
49611;BME280;35515;48.766;9.176;2023-04-25T04:25:53;97681.22;;;8.65;78.97
49611;BME280;35515;48.766;9.176;2023-04-25T04:28:20;97682.69;;;8.61;80.09
49611;BME280;35515;48.766;9.176;2023-04-25T04:30:48;97672.34;;;8.58;80.78
49611;BME280;35515;48.766;9.176;2023-04-25T04:33:16;97665.22;;;8.70;80.43
49611;BME280;35515;48.766;9.176;2023-04-25T04:35:44;97673.94;;;8.79;79.44
49611;BME280;35515;48.766;9.176;2023-04-25T04:38:12;97683.84;;;8.85;79.13
49611;BME280;35515;48.766;9.176;2023-04-25T04:40:40;97681.81;;;8.80;78.61
49611;BME280;35515;48.766;9.176;2023-04-25T04:43:07;97680.97;;;8.86;78.52
49611;BME280;35515;48.766;9.176;2023-04-25T04:45:34;97685.53;;;8.79;78.47
49611;BME280;35515;48.766;9.176;2023-04-25T04:48:02;97687.66;;;8.77;79.06
49611;BME280;35515;48.766;9.176;2023-04-25T04:50:30;97688.88;;;8.81;78.54
49611;BME280;35515;48.766;9.176;2023-04-25T04:52:58;97697.63;;;8.70;80.03
49611;BME280;35515;48.766;9.176;2023-04-25T04:55:24;97689.75;;;8.68;79.72
49611;BME280;35515;48.766;9.176;2023-04-25T04:57:51;97696.34;;;8.79;78.86
49611;BME280;35515;48.766;9.176;2023-04-25T05:00:17;97702.63;;;8.73;79.52
49611;BME280;35515;48.766;9.176;2023-04-25T05:02:45;97694.31;;;8.68;79.74
49611;BME280;35515;48.766;9.176;2023-04-25T05:05:13;97704.09;;;8.69;80.44
49611;BME280;35515;48.766;9.176;2023-04-25T05:07:40;97703.88;;;8.70;79.77
49611;BME280;35515;48.766;9.176;2023-04-25T05:10:08;97704.25;;;8.74;78.75
49611;BME280;35515;48.766;9.176;2023-04-25T05:12:34;97709.28;;;8.70;79.47
49611;BME280;35515;48.766;9.176;2023-04-25T05:15:01;97695.16;;;8.68;79.67
49611;BME280;35515;48.766;9.176;2023-04-25T05:17:27;97701.16;;;8.77;78.42
49611;BME280;35515;48.766;9.176;2023-04-25T05:19:54;97708.81;;;8.80;78.49
49611;BME280;35515;48.766;9.176;2023-04-25T05:22:22;97709.63;;;8.81;78.09
49611;BME280;35515;48.766;9.176;2023-04-25T05:24:49;97711.09;;;8.83;78.77
49611;BME280;35515;48.766;9.176;2023-04-25T05:27:17;97702.59;;;8.80;79.87
49611;BME280;35515;48.766;9.176;2023-04-25T05:29:44;97711.72;;;8.85;79.65
49611;BME280;35515;48.766;9.176;2023-04-25T05:32:10;97713.97;;;8.89;78.20
49611;BME280;35515;48.766;9.176;2023-04-25T05:34:37;97715.84;;;8.95;78.71
49611;BME280;35515;48.766;9.176;2023-04-25T05:37:03;97717.50;;;8.96;77.15
49611;BME280;35515;48.766;9.176;2023-04-25T05:39:31;97716.44;;;8.97;77.22
49611;BME280;35515;48.766;9.176;2023-04-25T05:41:58;97719.53;;;9.00;76.40
49611;BME280;35515;48.766;9.176;2023-04-25T05:44:24;97718.69;;;9.07;75.90
49611;BME280;35515;48.766;9.176;2023-04-25T05:46:51;97723.69;;;9.03;75.07
49611;BME280;35515;48.766;9.176;2023-04-25T05:49:18;97723.06;;;9.08;74.15
49611;BME280;35515;48.766;9.176;2023-04-25T05:51:44;97718.28;;;9.03;73.46
49611;BME280;35515;48.766;9.176;2023-04-25T05:54:11;97722.84;;;9.09;72.36
49611;BME280;35515;48.766;9.176;2023-04-25T05:56:39;97718.22;;;9.16;70.83
49611;BME280;35515;48.766;9.176;2023-04-25T05:59:05;97718.09;;;8.98;71.71
49611;BME280;35515;48.766;9.176;2023-04-25T06:01:32;97721.22;;;9.01;71.70
49611;BME280;35515;48.766;9.176;2023-04-25T06:03:59;97719.53;;;9.00;71.49
49611;BME280;35515;48.766;9.176;2023-04-25T06:06:25;97716.66;;;8.95;71.92
49611;BME280;35515;48.766;9.176;2023-04-25T06:08:53;97718.53;;;8.95;72.33
49611;BME280;35515;48.766;9.176;2023-04-25T06:11:19;97712.50;;;8.93;72.80
49611;BME280;35515;48.766;9.176;2023-04-25T06:13:47;97723.94;;;8.95;72.84
49611;BME280;35515;48.766;9.176;2023-04-25T06:16:14;97721.47;;;8.86;73.76
49611;BME280;35515;48.766;9.176;2023-04-25T06:18:40;97714.97;;;9.01;73.89
49611;BME280;35515;48.766;9.176;2023-04-25T06:21:07;97715.19;;;8.99;73.11
49611;BME280;35515;48.766;9.176;2023-04-25T06:23:33;97712.25;;;9.01;72.66
49611;BME280;35515;48.766;9.176;2023-04-25T06:26:00;97703.94;;;9.09;73.64
49611;BME280;35515;48.766;9.176;2023-04-25T06:28:27;97709.56;;;9.08;74.10
49611;BME280;35515;48.766;9.176;2023-04-25T06:30:54;97707.03;;;9.06;74.50
49611;BME280;35515;48.766;9.176;2023-04-25T06:33:21;97698.75;;;9.01;75.35
49611;BME280;35515;48.766;9.176;2023-04-25T06:35:49;97707.94;;;9.00;76.58
49611;BME280;35515;48.766;9.176;2023-04-25T06:38:16;97710.97;;;9.10;75.86
49611;BME280;35515;48.766;9.176;2023-04-25T06:40:42;97701.53;;;9.26;76.05
49611;BME280;35515;48.766;9.176;2023-04-25T06:43:09;97711.16;;;9.15;76.03
49611;BME280;35515;48.766;9.176;2023-04-25T06:45:35;97710.88;;;8.92;79.01
49611;BME280;35515;48.766;9.176;2023-04-25T06:48:03;97725.38;;;8.97;79.34
49611;BME280;35515;48.766;9.176;2023-04-25T06:50:30;97718.31;;;8.96;79.72
49611;BME280;35515;48.766;9.176;2023-04-25T06:52:56;97706.75;;;8.82;79.55
49611;BME280;35515;48.766;9.176;2023-04-25T06:55:23;97713.16;;;8.88;82.69
49611;BME280;35515;48.766;9.176;2023-04-25T06:57:49;97714.16;;;8.94;81.03
49611;BME280;35515;48.766;9.176;2023-04-25T07:00:17;97715.84;;;8.95;79.89
49611;BME280;35515;48.766;9.176;2023-04-25T07:02:43;97711.72;;;8.85;79.76
49611;BME280;35515;48.766;9.176;2023-04-25T07:05:11;97705.47;;;8.92;78.85
49611;BME280;35515;48.766;9.176;2023-04-25T07:07:38;97710.28;;;8.76;81.19
49611;BME280;35515;48.766;9.176;2023-04-25T07:10:05;97713.19;;;8.81;81.86
49611;BME280;35515;48.766;9.176;2023-04-25T07:12:32;97723.31;;;8.93;79.74
49611;BME280;35515;48.766;9.176;2023-04-25T07:14:58;97723.56;;;8.84;82.70
49611;BME280;35515;48.766;9.176;2023-04-25T07:17:31;97720.00;;;8.91;81.07
49611;BME280;35515;48.766;9.176;2023-04-25T07:19:57;97724.38;;;8.85;83.04
49611;BME280;35515;48.766;9.176;2023-04-25T07:22:25;97724.38;;;8.85;83.27
49611;BME280;35515;48.766;9.176;2023-04-25T07:24:52;97717.50;;;8.96;82.80
49611;BME280;35515;48.766;9.176;2023-04-25T07:27:18;97725.81;;;8.87;84.82
49611;BME280;35515;48.766;9.176;2023-04-25T07:29:45;97718.78;;;8.86;85.25
49611;BME280;35515;48.766;9.176;2023-04-25T07:32:11;97729.59;;;8.86;85.81
49611;BME280;35515;48.766;9.176;2023-04-25T07:34:39;97730.19;;;8.89;85.72
49611;BME280;35515;48.766;9.176;2023-04-25T07:37:06;97737.44;;;8.95;84.50
49611;BME280;35515;48.766;9.176;2023-04-25T07:39:34;97734.19;;;8.73;86.04
49611;BME280;35515;48.766;9.176;2023-04-25T07:42:02;97743.50;;;8.77;87.55
49611;BME280;35515;48.766;9.176;2023-04-25T07:44:29;97734.97;;;8.93;86.38
49611;BME280;35515;48.766;9.176;2023-04-25T07:46:56;97741.81;;;8.96;87.22
49611;BME280;35515;48.766;9.176;2023-04-25T07:49:23;97743.94;;;8.80;88.61
49611;BME280;35515;48.766;9.176;2023-04-25T07:51:49;97751.59;;;8.83;89.09
49611;BME280;35515;48.766;9.176;2023-04-25T07:54:16;97753.28;;;8.78;87.72
49611;BME280;35515;48.766;9.176;2023-04-25T07:56:44;97753.31;;;8.71;88.91
49611;BME280;35515;48.766;9.176;2023-04-25T07:59:11;97760.59;;;8.64;91.07
49611;BME280;35515;48.766;9.176;2023-04-25T08:01:37;97760.78;;;8.76;88.96
49611;BME280;35515;48.766;9.176;2023-04-25T08:04:04;97764.53;;;8.68;89.75
49611;BME280;35515;48.766;9.176;2023-04-25T08:06:30;97762.19;;;8.85;88.98
49611;BME280;35515;48.766;9.176;2023-04-25T08:08:58;97760.34;;;8.85;89.40
49611;BME280;35515;48.766;9.176;2023-04-25T08:11:24;97773.63;;;8.87;89.25
49611;BME280;35515;48.766;9.176;2023-04-25T08:13:52;97776.16;;;8.75;89.92
49611;BME280;35515;48.766;9.176;2023-04-25T08:16:19;97772.81;;;8.86;89.17
49611;BME280;35515;48.766;9.176;2023-04-25T08:18:46;97781.09;;;8.78;89.61
49611;BME280;35515;48.766;9.176;2023-04-25T08:21:12;97778.22;;;8.80;89.51
49611;BME280;35515;48.766;9.176;2023-04-25T08:23:39;97786.53;;;8.58;90.93
49611;BME280;35515;48.766;9.176;2023-04-25T08:26:05;97782.78;;;8.79;89.71
49611;BME280;35515;48.766;9.176;2023-04-25T08:28:32;97791.53;;;8.68;90.47
49611;BME280;35515;48.766;9.176;2023-04-25T08:31:00;97794.03;;;8.63;90.48
49611;BME280;35515;48.766;9.176;2023-04-25T08:33:26;97800.06;;;8.58;92.50
49611;BME280;35515;48.766;9.176;2023-04-25T08:35:53;97802.75;;;8.51;95.63
49611;BME280;35515;48.766;9.176;2023-04-25T08:38:20;97807.75;;;8.68;95.44
49611;BME280;35515;48.766;9.176;2023-04-25T08:40:49;97808.13;;;8.72;95.24
49611;BME280;35515;48.766;9.176;2023-04-25T08:43:18;97807.31;;;8.71;93.25
49611;BME280;35515;48.766;9.176;2023-04-25T08:45:46;97812.72;;;8.64;93.46
49611;BME280;35515;48.766;9.176;2023-04-25T08:48:15;97819.78;;;8.79;93.40
49611;BME280;35515;48.766;9.176;2023-04-25T08:50:45;97806.28;;;8.72;93.38
49611;BME280;35515;48.766;9.176;2023-04-25T08:53:16;97820.41;;;8.67;95.05
49611;BME280;35515;48.766;9.176;2023-04-25T08:55:45;97823.09;;;8.74;94.83
49611;BME280;35515;48.766;9.176;2023-04-25T08:58:13;97830.16;;;8.75;94.24
49611;BME280;35515;48.766;9.176;2023-04-25T09:00:39;97831.41;;;8.66;95.57
49611;BME280;35515;48.766;9.176;2023-04-25T09:03:06;97832.63;;;8.83;92.31
49611;BME280;35515;48.766;9.176;2023-04-25T09:05:35;97829.13;;;8.63;93.62
49611;BME280;35515;48.766;9.176;2023-04-25T09:08:01;97835.97;;;8.72;94.73
49611;BME280;35515;48.766;9.176;2023-04-25T09:10:28;97836.00;;;8.65;95.33
49611;BME280;35515;48.766;9.176;2023-04-25T09:13:05;97850.53;;;8.71;95.19
49611;BME280;35515;48.766;9.176;2023-04-25T09:15:32;97850.06;;;8.87;90.12
49611;BME280;35515;48.766;9.176;2023-04-25T09:17:59;97851.34;;;8.72;91.61
49611;BME280;35515;48.766;9.176;2023-04-25T09:20:26;97857.59;;;8.59;92.56
49611;BME280;35515;48.766;9.176;2023-04-25T09:23:04;97862.53;;;9.02;89.89
49611;BME280;35515;48.766;9.176;2023-04-25T09:25:35;97864.03;;;8.78;92.07
49611;BME280;35515;48.766;9.176;2023-04-25T09:28:05;97863.22;;;8.70;93.41
49611;BME280;35515;48.766;9.176;2023-04-25T09:30:34;97871.31;;;8.64;96.47
49611;BME280;35515;48.766;9.176;2023-04-25T09:33:04;97874.63;;;8.59;96.04
49611;BME280;35515;48.766;9.176;2023-04-25T09:35:35;97870.25;;;8.72;94.64
49611;BME280;35515;48.766;9.176;2023-04-25T09:38:08;97883.34;;;8.75;94.03
49611;BME280;35515;48.766;9.176;2023-04-25T09:40:39;97890.41;;;8.76;94.33
49611;BME280;35515;48.766;9.176;2023-04-25T09:43:09;97886.66;;;8.70;92.64
49611;BME280;35515;48.766;9.176;2023-04-25T09:45:41;97893.13;;;8.69;93.26
49611;BME280;35515;48.766;9.176;2023-04-25T09:48:11;97902.25;;;8.55;95.79
49611;BME280;35515;48.766;9.176;2023-04-25T09:50:37;97893.94;;;8.63;94.48
49611;BME280;35515;48.766;9.176;2023-04-25T09:53:05;97899.94;;;8.51;95.08
49611;BME280;35515;48.766;9.176;2023-04-25T09:55:34;97895.78;;;8.49;95.85
49611;BME280;35515;48.766;9.176;2023-04-25T09:58:04;97891.25;;;8.63;94.97
49611;BME280;35515;48.766;9.176;2023-04-25T10:00:32;97905.34;;;8.78;94.76
49611;BME280;35515;48.766;9.176;2023-04-25T10:03:01;97907.44;;;8.63;94.05
49611;BME280;35515;48.766;9.176;2023-04-25T10:05:30;97916.59;;;8.75;93.75
49611;BME280;35515;48.766;9.176;2023-04-25T10:07:57;97914.31;;;8.72;92.26
49611;BME280;35515;48.766;9.176;2023-04-25T10:10:24;97914.72;;;8.69;94.24
49611;BME280;35515;48.766;9.176;2023-04-25T10:12:54;97916.16;;;8.78;90.78
49611;BME280;35515;48.766;9.176;2023-04-25T10:15:21;97932.78;;;8.82;88.71
49611;BME280;35515;48.766;9.176;2023-04-25T10:17:49;97930.72;;;8.70;86.63
49611;BME280;35515;48.766;9.176;2023-04-25T10:20:15;97943.97;;;8.45;87.56
49611;BME280;35515;48.766;9.176;2023-04-25T10:22:45;97939.63;;;8.58;87.47
49611;BME280;35515;48.766;9.176;2023-04-25T10:25:14;97942.88;;;8.33;87.95
49611;BME280;35515;48.766;9.176;2023-04-25T10:27:40;97951.47;;;8.57;88.34
49611;BME280;35515;48.766;9.176;2023-04-25T10:30:10;97956.81;;;8.43;89.23
49611;BME280;35515;48.766;9.176;2023-04-25T10:32:41;97954.31;;;8.35;90.23
49611;BME280;35515;48.766;9.176;2023-04-25T10:35:16;97953.94;;;8.51;89.53
49611;BME280;35515;48.766;9.176;2023-04-25T10:37:56;97954.72;;;8.25;93.34
49611;BME280;35515;48.766;9.176;2023-04-25T10:40:23;97960.50;;;8.29;92.02
49611;BME280;35515;48.766;9.176;2023-04-25T10:42:51;97970.91;;;8.25;92.55
49611;BME280;35515;48.766;9.176;2023-04-25T10:45:19;97967.97;;;8.20;93.26
49611;BME280;35515;48.766;9.176;2023-04-25T10:47:46;97965.28;;;8.20;96.01
49611;BME280;35515;48.766;9.176;2023-04-25T10:50:14;97972.16;;;8.36;93.83
49611;BME280;35515;48.766;9.176;2023-04-25T10:52:41;97978.56;;;8.28;93.35
49611;BME280;35515;48.766;9.176;2023-04-25T10:55:08;97986.47;;;8.36;94.19
49611;BME280;35515;48.766;9.176;2023-04-25T10:57:40;97989.41;;;8.42;89.67
49611;BME280;35515;48.766;9.176;2023-04-25T11:00:10;98005.16;;;8.31;87.72
49611;BME280;35515;48.766;9.176;2023-04-25T11:02:40;98007.06;;;8.44;87.56
49611;BME280;35515;48.766;9.176;2023-04-25T11:05:08;98010.28;;;8.19;87.49
49611;BME280;35515;48.766;9.176;2023-04-25T11:07:38;98014.72;;;7.85;91.22
49611;BME280;35515;48.766;9.176;2023-04-25T11:10:06;98017.66;;;7.91;91.35
49611;BME280;35515;48.766;9.176;2023-04-25T11:12:33;98016.81;;;7.90;91.00
49611;BME280;35515;48.766;9.176;2023-04-25T11:15:00;98016.41;;;7.86;91.85
49611;BME280;35515;48.766;9.176;2023-04-25T11:17:28;98017.00;;;7.89;92.18
49611;BME280;35515;48.766;9.176;2023-04-25T11:19:56;98024.94;;;7.97;90.72
49611;BME280;35515;48.766;9.176;2023-04-25T11:22:23;98021.97;;;7.85;88.94
49611;BME280;35515;48.766;9.176;2023-04-25T11:24:50;98028.00;;;7.87;91.72
49611;BME280;35515;48.766;9.176;2023-04-25T11:27:17;98025.09;;;7.89;94.33
49611;BME280;35515;48.766;9.176;2023-04-25T11:29:44;98020.13;;;7.85;90.80
49611;BME280;35515;48.766;9.176;2023-04-25T11:32:13;98026.59;;;7.98;89.17
49611;BME280;35515;48.766;9.176;2023-04-25T11:34:43;98019.16;;;8.00;89.41
49611;BME280;35515;48.766;9.176;2023-04-25T11:37:11;98021.22;;;7.98;87.49
49611;BME280;35515;48.766;9.176;2023-04-25T11:39:42;98023.50;;;8.01;86.63
49611;BME280;35515;48.766;9.176;2023-04-25T11:42:10;98022.69;;;8.00;86.39
49611;BME280;35515;48.766;9.176;2023-04-25T11:44:39;98037.63;;;8.03;85.54
49611;BME280;35515;48.766;9.176;2023-04-25T11:47:09;98030.31;;;7.97;88.81
49611;BME280;35515;48.766;9.176;2023-04-25T11:49:39;98029.53;;;8.03;86.90
49611;BME280;35515;48.766;9.176;2023-04-25T11:52:08;98025.00;;;8.10;89.43
49611;BME280;35515;48.766;9.176;2023-04-25T11:54:41;98034.69;;;7.98;90.73
49611;BME280;35515;48.766;9.176;2023-04-25T11:57:14;98033.63;;;7.92;91.31
49611;BME280;35515;48.766;9.176;2023-04-25T11:59:45;98036.03;;;8.15;92.98
49611;BME280;35515;48.766;9.176;2023-04-25T12:02:26;98033.13;;;8.17;87.63
49611;BME280;35515;48.766;9.176;2023-04-25T12:05:01;98039.31;;;8.04;88.73
49611;BME280;35515;48.766;9.176;2023-04-25T12:07:32;98042.63;;;8.06;91.78
49611;BME280;35515;48.766;9.176;2023-04-25T12:10:09;98041.66;;;8.20;90.51
49611;BME280;35515;48.766;9.176;2023-04-25T12:12:41;98040.63;;;8.22;90.02
49611;BME280;35515;48.766;9.176;2023-04-25T12:15:13;98039.81;;;8.21;89.96
49611;BME280;35515;48.766;9.176;2023-04-25T12:17:45;98053.06;;;8.16;89.97
49611;BME280;35515;48.766;9.176;2023-04-25T12:20:14;98038.97;;;8.27;87.94
49611;BME280;35515;48.766;9.176;2023-04-25T12:22:42;98052.66;;;8.19;88.97
49611;BME280;35515;48.766;9.176;2023-04-25T12:25:12;98049.78;;;8.27;89.21
49611;BME280;35515;48.766;9.176;2023-04-25T12:27:39;98053.09;;;8.23;90.00
49611;BME280;35515;48.766;9.176;2023-04-25T12:30:08;98060.78;;;8.26;88.94
49611;BME280;35515;48.766;9.176;2023-04-25T12:32:35;98048.13;;;8.33;90.00
49611;BME280;35515;48.766;9.176;2023-04-25T12:35:03;98055.63;;;8.37;90.59
49611;BME280;35515;48.766;9.176;2023-04-25T12:37:30;98059.06;;;8.60;88.95
49611;BME280;35515;48.766;9.176;2023-04-25T12:39:56;98057.69;;;8.35;92.43
49611;BME280;35515;48.766;9.176;2023-04-25T12:42:24;98061.56;;;8.55;91.90
49611;BME280;35515;48.766;9.176;2023-04-25T12:44:51;98059.91;;;8.67;90.96
49611;BME280;35515;48.766;9.176;2023-04-25T12:47:17;98060.50;;;8.56;91.16
49611;BME280;35515;48.766;9.176;2023-04-25T12:49:44;98064.84;;;8.57;90.35
49611;BME280;35515;48.766;9.176;2023-04-25T12:52:10;98062.38;;;8.62;89.37
49611;BME280;35515;48.766;9.176;2023-04-25T12:54:37;98059.09;;;8.73;89.30
49611;BME280;35515;48.766;9.176;2023-04-25T12:57:03;98053.06;;;8.64;91.81
49611;BME280;35515;48.766;9.176;2023-04-25T12:59:31;98065.75;;;8.70;92.49
49611;BME280;35515;48.766;9.176;2023-04-25T13:01:58;98057.69;;;8.84;92.77
49611;BME280;35515;48.766;9.176;2023-04-25T13:04:24;98060.78;;;8.87;91.08
49611;BME280;35515;48.766;9.176;2023-04-25T13:06:51;98058.94;;;9.01;88.97
49611;BME280;35515;48.766;9.176;2023-04-25T13:09:17;98058.31;;;9.06;89.98
49611;BME280;35515;48.766;9.176;2023-04-25T13:11:44;98046.28;;;9.29;88.25